createdAt,value
2017-10-13T00:00:30.022Z,9.35
2017-10-13T00:01:29.995Z,9.16
2017-10-13T00:02:29.984Z,9.17
2017-10-13T00:03:30.659Z,9.17
2017-10-13T00:04:30.302Z,9.23
2017-10-13T00:05:29.952Z,9.16
2017-10-13T00:06:30.281Z,9.08
2017-10-13T00:07:30.269Z,9.03
2017-10-13T00:08:30.259Z,9.12
2017-10-13T00:09:30.249Z,9.04
2017-10-13T00:10:29.901Z,8.97
2017-10-13T00:11:30.567Z,9.03
2017-10-13T00:12:30.243Z,9.03
2017-10-13T00:13:29.876Z,9.09
2017-10-13T00:14:30.221Z,9.01
2017-10-13T00:15:30.193Z,8.98
2017-10-13T00:16:30.180Z,9
2017-10-13T00:17:30.169Z,9.01
2017-10-13T00:18:30.155Z,9.05
2017-10-13T00:19:30.154Z,8.95
2017-10-13T00:20:29.792Z,8.95
2017-10-13T00:21:30.122Z,8.97
2017-10-13T00:22:30.130Z,8.92
2017-10-13T00:23:29.784Z,9
2017-10-13T00:24:30.093Z,8.89
2017-10-13T00:25:30.086Z,8.98
2017-10-13T00:26:30.084Z,8.92
2017-10-13T00:27:29.721Z,9
2017-10-13T00:28:30.053Z,9.01
2017-10-13T00:29:29.704Z,8.98
2017-10-13T00:30:29.692Z,9.03
2017-10-13T00:31:30.038Z,9.03
2017-10-13T00:32:29.670Z,8.94
2017-10-13T00:33:29.659Z,9.01
2017-10-13T00:34:29.989Z,8.92
2017-10-13T00:35:29.659Z,9.03
2017-10-13T00:36:29.625Z,9.11
2017-10-13T00:37:30.295Z,9
2017-10-13T00:38:29.627Z,9.17
2017-10-13T00:39:29.602Z,9.17
2017-10-13T00:40:29.924Z,9.24
2017-10-13T00:41:29.916Z,9.21
2017-10-13T00:42:30.254Z,9.32
2017-10-13T00:43:29.919Z,9.27
2017-10-13T00:44:30.220Z,9.35
2017-10-13T00:45:30.217Z,9.32
2017-10-13T00:46:29.538Z,9.32
2017-10-13T00:47:29.854Z,9.45
2017-10-13T00:48:29.514Z,9.48
2017-10-13T00:49:29.493Z,9.42
2017-10-13T00:50:29.821Z,9.45
2017-10-13T00:51:29.827Z,9.57
2017-10-13T00:52:29.826Z,9.5
2017-10-13T00:53:29.451Z,9.57
2017-10-13T00:54:29.793Z,9.64
2017-10-13T00:55:29.428Z,9.74
2017-10-13T00:56:29.756Z,9.77
2017-10-13T00:57:29.407Z,9.75
2017-10-13T00:58:29.749Z,9.72
2017-10-13T00:59:29.733Z,9.78
2017-10-13T01:00:29.380Z,9.82
2017-10-13T01:01:29.711Z,9.85
2017-10-13T01:02:29.715Z,9.93
2017-10-13T01:03:30.036Z,9.92
2017-10-13T01:04:29.678Z,9.95
2017-10-13T01:05:29.669Z,10.02
2017-10-13T01:06:29.656Z,10.07
2017-10-13T01:07:29.308Z,10.02
2017-10-13T01:08:29.636Z,10.11
2017-10-13T01:09:29.289Z,10.08
2017-10-13T01:10:29.969Z,10.07
2017-10-13T01:11:29.273Z,10.14
2017-10-13T01:12:29.274Z,10.15
2017-10-13T01:13:29.590Z,10.14
2017-10-13T01:14:29.578Z,10.18
2017-10-13T01:15:29.228Z,10.14
2017-10-13T01:16:29.555Z,10.26
2017-10-13T01:17:29.546Z,10.17
2017-10-13T01:18:29.873Z,10.28
2017-10-13T01:19:29.522Z,10.21
2017-10-13T01:20:29.518Z,10.26
2017-10-13T01:21:29.164Z,10.2
2017-10-13T01:22:29.493Z,10.26
2017-10-13T01:23:29.488Z,10.26
2017-10-13T01:24:29.479Z,10.29
2017-10-13T01:25:29.124Z,10.26
2017-10-13T01:26:29.459Z,10.29
2017-10-13T01:27:29.108Z,10.36
2017-10-13T01:28:29.094Z,10.35
2017-10-13T01:29:29.102Z,10.38
2017-10-13T01:30:29.762Z,10.38
2017-10-13T01:31:29.756Z,10.35
2017-10-13T01:32:29.400Z,10.41
2017-10-13T01:33:29.387Z,10.42
2017-10-13T01:34:29.389Z,10.47
2017-10-13T01:35:29.386Z,10.44
2017-10-13T01:36:29.359Z,10.44
2017-10-13T01:37:29.352Z,10.44
2017-10-13T01:38:29.337Z,10.47
2017-10-13T01:39:28.989Z,10.49
2017-10-13T01:40:28.982Z,10.44
2017-10-13T01:41:29.312Z,10.47
2017-10-13T01:42:28.964Z,10.44
2017-10-13T01:43:28.951Z,10.52
2017-10-13T01:44:28.940Z,10.46
2017-10-13T01:45:29.269Z,10.47
2017-10-13T01:46:28.931Z,10.49
2017-10-13T01:47:29.282Z,10.49
2017-10-13T01:48:29.245Z,10.52
2017-10-13T01:49:29.595Z,10.47
2017-10-13T01:50:28.890Z,10.47
2017-10-13T01:51:28.874Z,10.49
2017-10-13T01:52:28.867Z,10.57
2017-10-13T01:53:29.204Z,10.44
2017-10-13T01:54:29.221Z,10.46
2017-10-13T01:55:29.178Z,10.44
2017-10-13T01:56:28.827Z,10.44
2017-10-13T01:57:29.536Z,10.46
2017-10-13T01:58:29.498Z,10.47
2017-10-13T01:59:28.796Z,10.47
2017-10-13T02:00:29.152Z,10.41
2017-10-13T02:01:28.776Z,10.44
2017-10-13T02:02:28.782Z,10.49
2017-10-13T02:03:29.099Z,10.47
2017-10-13T02:04:28.770Z,10.44
2017-10-13T02:05:28.889Z,10.55
2017-10-13T02:06:28.726Z,10.41
2017-10-13T02:07:29.128Z,10.54
2017-10-13T02:08:29.344Z,10.47
2017-10-13T02:09:29.036Z,10.51
2017-10-13T02:10:28.703Z,10.44
2017-10-13T02:11:29.041Z,10.49
2017-10-13T02:12:28.675Z,10.46
2017-10-13T02:13:29.004Z,10.44
2017-10-13T02:14:28.652Z,10.46
2017-10-13T02:15:28.985Z,10.41
2017-10-13T02:16:28.976Z,10.42
2017-10-13T02:17:28.649Z,10.44
2017-10-13T02:18:28.958Z,10.46
2017-10-13T02:19:29.283Z,10.42
2017-10-13T02:20:28.594Z,10.49
2017-10-13T02:21:28.584Z,10.44
2017-10-13T02:22:28.912Z,10.44
2017-10-13T02:23:28.579Z,10.41
2017-10-13T02:24:28.896Z,10.55
2017-10-13T02:25:28.549Z,10.42
2017-10-13T02:26:29.211Z,10.44
2017-10-13T02:27:28.525Z,10.46
2017-10-13T02:28:28.866Z,10.35
2017-10-13T02:29:28.514Z,10.36
2017-10-13T02:30:28.869Z,10.38
2017-10-13T02:31:28.487Z,10.39
2017-10-13T02:32:28.819Z,10.28
2017-10-13T02:33:29.152Z,10.32
2017-10-13T02:34:28.807Z,10.31
2017-10-13T02:35:28.452Z,10.26
2017-10-13T02:36:28.784Z,10.26
2017-10-13T02:37:29.113Z,10.17
2017-10-13T02:38:28.429Z,10.15
2017-10-13T02:39:28.757Z,10.08
2017-10-13T02:40:28.742Z,10.15
2017-10-13T02:41:28.390Z,10.15
2017-10-13T02:42:28.381Z,10.1
2017-10-13T02:43:28.731Z,10.11
2017-10-13T02:44:28.712Z,10.13
2017-10-13T02:45:28.354Z,10.18
2017-10-13T02:46:29.077Z,10.15
2017-10-13T02:47:28.674Z,10.15
2017-10-13T02:48:28.669Z,10.15
2017-10-13T02:49:29.005Z,10.18
2017-10-13T02:50:28.991Z,10.28
2017-10-13T02:51:28.297Z,10.14
2017-10-13T02:52:29.083Z,10.25
2017-10-13T02:53:28.275Z,10.29
2017-10-13T02:54:28.607Z,10.31
2017-10-13T02:55:28.946Z,10.21
2017-10-13T02:56:28.929Z,10.17
2017-10-13T02:57:28.581Z,10.18
2017-10-13T02:58:28.227Z,10.17
2017-10-13T02:59:28.916Z,10.17
2017-10-13T03:00:28.208Z,10.15
2017-10-13T03:01:28.200Z,10.15
2017-10-13T03:02:28.893Z,10.14
2017-10-13T03:03:28.196Z,10.13
2017-10-13T03:04:28.532Z,10.15
2017-10-13T03:05:28.162Z,10.03
2017-10-13T03:06:28.490Z,10.07
2017-10-13T03:07:28.141Z,10.14
2017-10-13T03:08:28.483Z,10.17
2017-10-13T03:09:28.479Z,10.03
2017-10-13T03:10:28.453Z,10.05
2017-10-13T03:11:28.453Z,10.14
2017-10-13T03:12:28.437Z,10.13
2017-10-13T03:13:28.084Z,10.13
2017-10-13T03:14:28.413Z,10.15
2017-10-13T03:15:28.063Z,10.17
2017-10-13T03:16:28.401Z,10.13
2017-10-13T03:17:28.046Z,10.23
2017-10-13T03:18:28.057Z,10.23
2017-10-13T03:19:28.024Z,10.21
2017-10-13T03:20:28.356Z,10.23
2017-10-13T03:21:28.005Z,10.21
2017-10-13T03:22:28.356Z,10.23
2017-10-13T03:23:27.989Z,10.23
2017-10-13T03:24:27.976Z,10.29
2017-10-13T03:25:28.329Z,10.31
2017-10-13T03:26:28.298Z,10.25
2017-10-13T03:27:27.948Z,10.32
2017-10-13T03:28:28.305Z,10.29
2017-10-13T03:29:27.951Z,10.33
2017-10-13T03:30:28.608Z,10.29
2017-10-13T03:31:28.251Z,10.29
2017-10-13T03:32:27.901Z,10.29
2017-10-13T03:33:28.251Z,10.29
2017-10-13T03:34:28.226Z,10.29
2017-10-13T03:35:27.873Z,10.31
2017-10-13T03:36:28.203Z,10.23
2017-10-13T03:37:28.196Z,10.26
2017-10-13T03:38:27.845Z,10.21
2017-10-13T03:39:28.175Z,10.28
2017-10-13T03:40:27.825Z,10.15
2017-10-13T03:41:28.152Z,10.14
2017-10-13T03:42:28.484Z,10.13
2017-10-13T03:43:28.147Z,10.11
2017-10-13T03:44:28.128Z,10.11
2017-10-13T03:45:28.117Z,10.05
2017-10-13T03:46:28.103Z,10
2017-10-13T03:47:27.755Z,10.07
2017-10-13T03:48:28.102Z,10.07
2017-10-13T03:49:28.084Z,9.98
2017-10-13T03:50:28.070Z,10.03
2017-10-13T03:51:28.395Z,10.03
2017-10-13T03:52:28.047Z,10
2017-10-13T03:53:27.695Z,10.08
2017-10-13T03:54:27.693Z,10.11
2017-10-13T03:55:27.701Z,9.99
2017-10-13T03:56:28.014Z,10.02
2017-10-13T03:57:28.009Z,10.02
2017-10-13T03:58:28.327Z,10.07
2017-10-13T03:59:27.640Z,10.05
2017-10-13T04:00:27.972Z,10.03
2017-10-13T04:01:27.964Z,10.02
2017-10-13T04:02:27.632Z,10.1
2017-10-13T04:03:27.610Z,10.07
2017-10-13T04:04:27.953Z,10.03
2017-10-13T04:05:28.266Z,9.99
2017-10-13T04:06:27.909Z,10.03
2017-10-13T04:07:27.909Z,10.1
2017-10-13T04:08:27.888Z,10.05
2017-10-13T04:09:28.241Z,10.08
2017-10-13T04:10:27.874Z,10.05
2017-10-13T04:11:27.521Z,10.11
2017-10-13T04:12:27.856Z,10.14
2017-10-13T04:13:27.843Z,10.03
2017-10-13T04:14:27.835Z,10
2017-10-13T04:15:27.825Z,10.03
2017-10-13T04:16:27.477Z,10.07
2017-10-13T04:17:27.464Z,10.1
2017-10-13T04:18:27.455Z,10.08
2017-10-13T04:19:27.827Z,10.03
2017-10-13T04:20:28.114Z,10.03
2017-10-13T04:21:27.427Z,9.93
2017-10-13T04:22:27.760Z,9.9
2017-10-13T04:23:27.744Z,9.81
2017-10-13T04:24:27.399Z,9.78
2017-10-13T04:25:27.388Z,9.72
2017-10-13T04:26:27.716Z,9.77
2017-10-13T04:27:27.726Z,9.71
2017-10-13T04:28:27.355Z,9.63
2017-10-13T04:29:27.347Z,9.64
2017-10-13T04:30:27.344Z,9.57
2017-10-13T04:31:27.329Z,9.64
2017-10-13T04:32:27.320Z,9.57
2017-10-13T04:33:27.987Z,9.48
2017-10-13T04:34:27.324Z,9.55
2017-10-13T04:35:27.286Z,9.63
2017-10-13T04:36:27.622Z,9.53
2017-10-13T04:37:27.266Z,9.67
2017-10-13T04:38:27.258Z,9.64
2017-10-13T04:39:27.591Z,9.67
2017-10-13T04:40:27.241Z,9.67
2017-10-13T04:41:27.228Z,9.78
2017-10-13T04:42:27.576Z,9.72
2017-10-13T04:43:27.549Z,9.75
2017-10-13T04:44:27.553Z,9.78
2017-10-13T04:45:27.191Z,9.78
2017-10-13T04:46:27.179Z,9.82
2017-10-13T04:47:27.172Z,9.75
2017-10-13T04:48:27.840Z,9.7
2017-10-13T04:49:27.148Z,9.7
2017-10-13T04:50:27.822Z,9.67
2017-10-13T04:51:27.814Z,9.7
2017-10-13T04:52:27.467Z,9.64
2017-10-13T04:53:27.449Z,9.57
2017-10-13T04:54:27.456Z,9.59
2017-10-13T04:55:27.779Z,9.48
2017-10-13T04:56:27.419Z,9.48
2017-10-13T04:57:27.077Z,9.56
2017-10-13T04:58:27.403Z,9.48
2017-10-13T04:59:27.408Z,9.39
2017-10-13T05:00:27.722Z,9.45
2017-10-13T05:01:27.030Z,9.52
2017-10-13T05:02:27.363Z,9.5
2017-10-13T05:03:27.349Z,9.48
2017-10-13T05:04:26.997Z,9.64
2017-10-13T05:05:27.368Z,9.6
2017-10-13T05:06:26.977Z,9.7
2017-10-13T05:07:27.665Z,9.72
2017-10-13T05:08:26.960Z,9.72
2017-10-13T05:09:27.291Z,9.77
2017-10-13T05:10:27.278Z,9.81
2017-10-13T05:11:27.267Z,9.95
2017-10-13T05:12:27.268Z,9.92
2017-10-13T05:13:27.254Z,9.96
2017-10-13T05:14:26.931Z,9.9
2017-10-13T05:15:27.223Z,9.96
2017-10-13T05:16:27.227Z,9.92
2017-10-13T05:17:26.866Z,9.92
2017-10-13T05:18:26.856Z,10.07
2017-10-13T05:19:27.196Z,10.1
2017-10-13T05:20:26.837Z,10.07
2017-10-13T05:21:27.506Z,10.03
2017-10-13T05:22:26.834Z,10.1
2017-10-13T05:23:27.153Z,10.02
2017-10-13T05:24:27.149Z,10.1
2017-10-13T05:25:26.787Z,10.1
2017-10-13T05:26:26.778Z,10.1
2017-10-13T05:27:27.123Z,10.03
2017-10-13T05:28:27.102Z,10.07
2017-10-13T05:29:27.084Z,10.15
2017-10-13T05:30:26.737Z,10.07
2017-10-13T05:31:26.752Z,10.02
2017-10-13T05:32:26.719Z,10.13
2017-10-13T05:33:27.387Z,10.03
2017-10-13T05:34:26.701Z,10.1
2017-10-13T05:35:27.035Z,10.08
2017-10-13T05:36:27.021Z,10.13
2017-10-13T05:37:27.009Z,10.15
2017-10-13T05:38:26.657Z,10.17
2017-10-13T05:39:26.987Z,10.23
2017-10-13T05:40:26.655Z,10.25
2017-10-13T05:41:26.968Z,10.14
2017-10-13T05:42:26.969Z,10.23
2017-10-13T05:43:26.607Z,10.25
2017-10-13T05:44:26.602Z,10.28
2017-10-13T05:45:26.590Z,10.28
2017-10-13T05:46:26.580Z,10.29
2017-10-13T05:47:26.910Z,10.31
2017-10-13T05:48:27.245Z,10.33
2017-10-13T05:49:26.555Z,10.32
2017-10-13T05:50:27.222Z,10.26
2017-10-13T05:51:26.873Z,10.32
2017-10-13T05:52:27.208Z,10.31
2017-10-13T05:53:26.510Z,10.32
2017-10-13T05:54:26.844Z,10.33
2017-10-13T05:55:26.834Z,10.33
2017-10-13T05:56:26.823Z,10.32
2017-10-13T05:57:26.815Z,10.38
2017-10-13T05:58:26.460Z,10.32
2017-10-13T05:59:26.455Z,10.35
2017-10-13T06:00:27.144Z,10.38
2017-10-13T06:01:27.113Z,10.38
2017-10-13T06:02:26.426Z,10.47
2017-10-13T06:03:27.117Z,10.47
2017-10-13T06:04:26.403Z,10.54
2017-10-13T06:05:26.396Z,10.51
2017-10-13T06:06:26.727Z,10.49
2017-10-13T06:07:26.374Z,10.55
2017-10-13T06:08:26.704Z,10.52
2017-10-13T06:09:27.052Z,10.61
2017-10-13T06:10:27.029Z,10.57
2017-10-13T06:11:26.337Z,10.63
2017-10-13T06:12:26.673Z,10.61
2017-10-13T06:13:26.319Z,10.63
2017-10-13T06:14:26.310Z,10.61
2017-10-13T06:15:26.299Z,10.65
2017-10-13T06:16:26.653Z,10.7
2017-10-13T06:17:26.619Z,10.7
2017-10-13T06:18:26.268Z,10.8
2017-10-13T06:19:26.268Z,10.79
2017-10-13T06:20:26.252Z,10.79
2017-10-13T06:21:26.581Z,10.84
2017-10-13T06:22:26.238Z,10.84
2017-10-13T06:23:26.581Z,10.85
2017-10-13T06:24:26.212Z,10.83
2017-10-13T06:25:26.220Z,10.88
2017-10-13T06:26:26.558Z,10.87
2017-10-13T06:27:26.211Z,10.91
2017-10-13T06:28:26.174Z,10.97
2017-10-13T06:29:26.165Z,11.03
2017-10-13T06:30:26.500Z,11.05
2017-10-13T06:31:26.149Z,11.06
2017-10-13T06:32:26.504Z,11.15
2017-10-13T06:33:26.473Z,11.09
2017-10-13T06:34:26.461Z,11.13
2017-10-13T06:35:26.447Z,11.12
2017-10-13T06:36:26.441Z,11.18
2017-10-13T06:37:26.091Z,11.26
2017-10-13T06:38:26.778Z,11.21
2017-10-13T06:39:26.755Z,11.3
2017-10-13T06:40:26.066Z,11.31
2017-10-13T06:41:26.056Z,11.33
2017-10-13T06:42:26.056Z,11.41
2017-10-13T06:43:26.392Z,11.46
2017-10-13T06:44:26.372Z,11.39
2017-10-13T06:45:26.367Z,11.53
2017-10-13T06:46:26.008Z,11.46
2017-10-13T06:47:26.352Z,11.49
2017-10-13T06:48:26.343Z,11.59
2017-10-13T06:49:25.985Z,11.63
2017-10-13T06:50:26.334Z,11.63
2017-10-13T06:51:26.653Z,11.51
2017-10-13T06:52:26.321Z,11.52
2017-10-13T06:53:26.289Z,11.53
2017-10-13T06:54:26.281Z,11.6
2017-10-13T06:55:26.292Z,11.53
2017-10-13T06:56:26.261Z,11.66
2017-10-13T06:57:25.940Z,11.6
2017-10-13T06:58:25.901Z,11.53
2017-10-13T06:59:25.934Z,11.57
2017-10-13T07:00:26.226Z,11.68
2017-10-13T07:01:26.219Z,11.71
2017-10-13T07:02:25.872Z,11.61
2017-10-13T07:03:26.550Z,11.64
2017-10-13T07:04:26.562Z,11.7
2017-10-13T07:05:25.851Z,11.64
2017-10-13T07:06:26.183Z,11.66
2017-10-13T07:07:25.822Z,11.68
2017-10-13T07:08:25.835Z,11.7
2017-10-13T07:09:26.174Z,11.76
2017-10-13T07:10:26.142Z,11.66
2017-10-13T07:11:26.140Z,11.7
2017-10-13T07:12:26.139Z,11.7
2017-10-13T07:13:26.115Z,11.78
2017-10-13T07:14:25.768Z,11.84
2017-10-13T07:15:25.756Z,11.81
2017-10-13T07:16:26.111Z,11.88
2017-10-13T07:17:26.083Z,11.89
2017-10-13T07:18:26.069Z,11.94
2017-10-13T07:19:25.723Z,11.94
2017-10-13T07:20:26.408Z,11.89
2017-10-13T07:21:25.709Z,12.03
2017-10-13T07:22:26.393Z,12.03
2017-10-13T07:23:26.029Z,12.05
2017-10-13T07:24:25.693Z,11.95
2017-10-13T07:25:26.371Z,12.03
2017-10-13T07:26:26.005Z,11.97
2017-10-13T07:27:26.355Z,12.01
2017-10-13T07:28:26.014Z,12.04
2017-10-13T07:29:25.659Z,11.98
2017-10-13T07:30:25.975Z,12.01
2017-10-13T07:31:25.961Z,12.01
2017-10-13T07:32:25.959Z,12.01
2017-10-13T07:33:26.293Z,12.04
2017-10-13T07:34:25.632Z,12.03
2017-10-13T07:35:25.590Z,12.08
2017-10-13T07:36:25.938Z,12.07
2017-10-13T07:37:25.932Z,12.22
2017-10-13T07:38:25.572Z,12.2
2017-10-13T07:39:25.977Z,12.28
2017-10-13T07:40:26.229Z,12.31
2017-10-13T07:41:26.259Z,12.33
2017-10-13T07:42:25.897Z,12.29
2017-10-13T07:43:25.559Z,12.41
2017-10-13T07:44:25.519Z,12.4
2017-10-13T07:45:25.854Z,12.44
2017-10-13T07:46:25.503Z,12.45
2017-10-13T07:47:25.837Z,12.41
2017-10-13T07:48:25.824Z,12.38
2017-10-13T07:49:25.846Z,12.53
2017-10-13T07:50:25.553Z,12.53
2017-10-13T07:51:25.881Z,12.51
2017-10-13T07:52:25.557Z,12.58
2017-10-13T07:53:25.953Z,12.59
2017-10-13T07:54:25.490Z,12.7
2017-10-13T07:55:25.790Z,12.66
2017-10-13T07:56:25.784Z,12.74
2017-10-13T07:57:25.412Z,12.76
2017-10-13T07:58:25.416Z,12.74
2017-10-13T07:59:26.080Z,12.88
2017-10-13T08:00:25.740Z,12.94
2017-10-13T08:01:25.385Z,12.88
2017-10-13T08:02:25.724Z,12.86
2017-10-13T08:03:26.071Z,12.95
2017-10-13T08:04:25.708Z,12.95
2017-10-13T08:05:25.404Z,13.06
2017-10-13T08:06:25.699Z,13.16
2017-10-13T08:07:25.338Z,13.14
2017-10-13T08:08:25.347Z,13.2
2017-10-13T08:09:25.662Z,13.32
2017-10-13T08:10:25.661Z,13.42
2017-10-13T08:11:25.988Z,13.48
2017-10-13T08:12:25.639Z,13.42
2017-10-13T08:13:25.293Z,13.45
2017-10-13T08:14:25.300Z,13.55
2017-10-13T08:15:25.624Z,13.51
2017-10-13T08:16:25.654Z,13.63
2017-10-13T08:17:25.602Z,13.58
2017-10-13T08:18:25.615Z,13.7
2017-10-13T08:19:25.604Z,13.72
2017-10-13T08:20:25.586Z,13.87
2017-10-13T08:21:25.919Z,13.88
2017-10-13T08:22:25.914Z,13.88
2017-10-13T08:23:25.561Z,13.86
2017-10-13T08:24:25.215Z,13.79
2017-10-13T08:25:25.548Z,13.83
2017-10-13T08:26:25.203Z,13.86
2017-10-13T08:27:25.211Z,13.86
2017-10-13T08:28:25.528Z,13.84
2017-10-13T08:29:25.186Z,13.73
2017-10-13T08:30:25.519Z,13.68
2017-10-13T08:31:25.178Z,13.65
2017-10-13T08:32:25.182Z,13.54
2017-10-13T08:33:25.503Z,13.55
2017-10-13T08:34:25.827Z,13.57
2017-10-13T08:35:25.143Z,13.4
2017-10-13T08:36:25.479Z,13.42
2017-10-13T08:37:25.475Z,13.44
2017-10-13T08:38:25.120Z,13.42
2017-10-13T08:39:25.462Z,13.32
2017-10-13T08:40:25.109Z,13.36
2017-10-13T08:41:25.442Z,13.4
2017-10-13T08:42:25.454Z,13.28
2017-10-13T08:43:25.449Z,13.21
2017-10-13T08:44:25.422Z,13.11
2017-10-13T08:45:25.090Z,13.16
2017-10-13T08:46:25.067Z,13.14
2017-10-13T08:47:25.059Z,13.16
2017-10-13T08:48:25.070Z,13.24
2017-10-13T08:49:25.388Z,13.11
2017-10-13T08:50:25.379Z,13.09
2017-10-13T08:51:25.370Z,13.07
2017-10-13T08:52:25.032Z,13.09
2017-10-13T08:53:25.360Z,13.25
2017-10-13T08:54:25.356Z,13.2
2017-10-13T08:55:25.004Z,13.32
2017-10-13T08:56:25.019Z,13.36
2017-10-13T08:57:24.992Z,13.47
2017-10-13T08:58:25.334Z,13.45
2017-10-13T08:59:24.975Z,13.5
2017-10-13T09:00:24.968Z,13.51
2017-10-13T09:01:25.307Z,13.66
2017-10-13T09:02:25.638Z,13.72
2017-10-13T09:03:24.950Z,13.81
2017-10-13T09:04:24.965Z,13.78
2017-10-13T09:05:24.935Z,13.88
2017-10-13T09:06:24.940Z,14.08
2017-10-13T09:07:24.922Z,14.24
2017-10-13T09:08:25.258Z,14.26
2017-10-13T09:09:24.908Z,14.31
2017-10-13T09:10:25.582Z,14.28
2017-10-13T09:11:25.247Z,14.38
2017-10-13T09:12:24.908Z,14.48
2017-10-13T09:13:24.882Z,14.46
2017-10-13T09:14:25.217Z,14.6
2017-10-13T09:15:25.215Z,14.49
2017-10-13T09:16:25.202Z,14.49
2017-10-13T09:17:24.855Z,14.51
2017-10-13T09:18:25.193Z,14.41
2017-10-13T09:19:25.187Z,14.42
2017-10-13T09:20:25.199Z,14.3
2017-10-13T09:21:25.174Z,14.3
2017-10-13T09:22:25.166Z,14.21
2017-10-13T09:23:25.178Z,14.19
2017-10-13T09:24:25.496Z,14.06
2017-10-13T09:25:25.150Z,14.13
2017-10-13T09:26:24.800Z,14.16
2017-10-13T09:27:24.838Z,14.13
2017-10-13T09:28:24.807Z,14.11
2017-10-13T09:29:24.807Z,14.16
2017-10-13T09:30:25.119Z,14.24
2017-10-13T09:31:25.471Z,14.28
2017-10-13T09:32:25.128Z,14.28
2017-10-13T09:33:25.148Z,14.34
2017-10-13T09:34:24.756Z,14.34
2017-10-13T09:35:24.743Z,14.42
2017-10-13T09:36:24.740Z,14.49
2017-10-13T09:37:24.734Z,14.51
2017-10-13T09:38:24.729Z,14.51
2017-10-13T09:39:25.427Z,14.51
2017-10-13T09:40:25.078Z,14.48
2017-10-13T09:41:25.056Z,14.63
2017-10-13T09:42:25.048Z,14.7
2017-10-13T09:43:25.059Z,14.71
2017-10-13T09:44:24.687Z,14.57
2017-10-13T09:45:24.683Z,14.48
2017-10-13T09:46:24.680Z,14.56
2017-10-13T09:47:24.675Z,14.52
2017-10-13T09:48:25.019Z,14.57
2017-10-13T09:49:25.002Z,14.69
2017-10-13T09:50:24.658Z,14.66
2017-10-13T09:51:24.646Z,14.66
2017-10-13T09:52:24.646Z,14.63
2017-10-13T09:53:24.650Z,14.56
2017-10-13T09:54:24.985Z,14.52
2017-10-13T09:55:24.963Z,14.48
2017-10-13T09:56:24.966Z,14.48
2017-10-13T09:57:24.957Z,14.49
2017-10-13T09:58:24.610Z,14.44
2017-10-13T09:59:24.620Z,14.39
2017-10-13T10:00:24.941Z,14.48
2017-10-13T10:01:24.944Z,14.52
2017-10-13T10:02:24.585Z,14.49
2017-10-13T10:03:24.924Z,14.48
2017-10-13T10:04:24.573Z,14.38
2017-10-13T10:05:25.255Z,14.24
2017-10-13T10:06:24.903Z,14.13
2017-10-13T10:07:24.897Z,14.06
2017-10-13T10:08:24.922Z,14.02
2017-10-13T10:09:24.545Z,13.86
2017-10-13T10:10:24.541Z,13.76
2017-10-13T10:11:24.544Z,13.65
2017-10-13T10:12:24.529Z,13.69
2017-10-13T10:13:24.877Z,13.76
2017-10-13T10:14:24.512Z,13.87
2017-10-13T10:15:24.848Z,13.99
2017-10-13T10:16:24.837Z,14.09
2017-10-13T10:17:24.852Z,14.23
2017-10-13T10:18:24.841Z,14.3
2017-10-13T10:19:24.491Z,14.33
2017-10-13T10:20:24.496Z,14.39
2017-10-13T10:21:24.476Z,14.41
2017-10-13T10:22:24.797Z,14.44
2017-10-13T10:23:24.456Z,14.44
2017-10-13T10:24:25.131Z,14.49
2017-10-13T10:25:24.442Z,14.48
2017-10-13T10:26:25.122Z,14.48
2017-10-13T10:27:24.770Z,14.61
2017-10-13T10:28:24.426Z,14.83
2017-10-13T10:29:24.420Z,14.94
2017-10-13T10:30:24.418Z,14.94
2017-10-13T10:31:24.406Z,14.94
2017-10-13T10:32:24.740Z,14.95
2017-10-13T10:33:24.734Z,15.04
2017-10-13T10:34:25.075Z,15
2017-10-13T10:35:24.769Z,15.01
2017-10-13T10:36:24.382Z,14.83
2017-10-13T10:37:24.374Z,14.82
2017-10-13T10:38:24.364Z,14.66
2017-10-13T10:39:25.064Z,14.63
2017-10-13T10:40:24.695Z,14.59
2017-10-13T10:41:24.689Z,14.51
2017-10-13T10:42:24.683Z,14.48
2017-10-13T10:43:24.340Z,14.46
2017-10-13T10:44:24.670Z,14.45
2017-10-13T10:45:24.329Z,14.51
2017-10-13T10:46:24.318Z,14.46
2017-10-13T10:47:24.684Z,14.52
2017-10-13T10:48:24.988Z,14.67
2017-10-13T10:49:24.311Z,14.7
2017-10-13T10:50:24.652Z,14.95
2017-10-13T10:51:24.286Z,15.13
2017-10-13T10:52:24.985Z,15.18
2017-10-13T10:53:24.280Z,15.37
2017-10-13T10:54:24.953Z,15.49
2017-10-13T10:55:24.269Z,15.65
2017-10-13T10:56:24.603Z,15.6
2017-10-13T10:57:24.257Z,15.63
2017-10-13T10:58:24.261Z,15.63
2017-10-13T10:59:24.622Z,15.62
2017-10-13T11:00:24.583Z,15.52
2017-10-13T11:01:24.574Z,15.53
2017-10-13T11:02:24.228Z,15.45
2017-10-13T11:03:24.224Z,15.55
2017-10-13T11:04:24.561Z,15.58
2017-10-13T11:05:24.903Z,15.55
2017-10-13T11:06:24.213Z,15.55
2017-10-13T11:07:24.898Z,15.47
2017-10-13T11:08:24.197Z,15.53
2017-10-13T11:09:24.194Z,15.43
2017-10-13T11:10:24.188Z,15.41
2017-10-13T11:11:24.529Z,15.4
2017-10-13T11:12:24.540Z,15.37
2017-10-13T11:13:24.514Z,15.33
2017-10-13T11:14:24.516Z,15.37
2017-10-13T11:15:24.523Z,15.33
2017-10-13T11:16:24.165Z,15.27
2017-10-13T11:17:24.153Z,15.33
2017-10-13T11:18:24.148Z,15.25
2017-10-13T11:19:24.830Z,15.16
2017-10-13T11:20:24.477Z,15.19
2017-10-13T11:21:24.484Z,15.2
2017-10-13T11:22:24.131Z,15.4
2017-10-13T11:23:24.465Z,15.35
2017-10-13T11:24:24.464Z,15.4
2017-10-13T11:25:24.112Z,15.51
2017-10-13T11:26:24.442Z,15.63
2017-10-13T11:27:24.781Z,15.74
2017-10-13T11:28:24.442Z,15.71
2017-10-13T11:29:24.776Z,15.84
2017-10-13T11:30:24.438Z,15.96
2017-10-13T11:31:24.430Z,16.02
2017-10-13T11:32:24.764Z,15.93
2017-10-13T11:33:24.415Z,16.04
2017-10-13T11:34:24.768Z,15.93
2017-10-13T11:35:24.066Z,15.93
2017-10-13T11:36:24.076Z,15.83
2017-10-13T11:37:24.052Z,15.74
2017-10-13T11:38:24.383Z,15.75
2017-10-13T11:39:24.053Z,15.77
2017-10-13T11:40:24.384Z,15.71
2017-10-13T11:41:24.378Z,15.63
2017-10-13T11:42:24.027Z,15.44
2017-10-13T11:43:24.364Z,15.41
2017-10-13T11:44:24.366Z,15.43
2017-10-13T11:45:24.013Z,15.3
2017-10-13T11:46:24.005Z,15.44
2017-10-13T11:47:24.344Z,15.41
2017-10-13T11:48:24.392Z,15.62
2017-10-13T11:49:24.330Z,15.62
2017-10-13T11:50:24.333Z,15.75
2017-10-13T11:51:23.994Z,15.83
2017-10-13T11:52:23.981Z,15.96
2017-10-13T11:53:23.980Z,16.02
2017-10-13T11:54:24.308Z,16.04
2017-10-13T11:55:24.323Z,16.14
2017-10-13T11:56:24.312Z,16.11
2017-10-13T11:57:23.968Z,16.1
2017-10-13T11:58:24.288Z,16.13
2017-10-13T11:59:24.331Z,16.22
2017-10-13T12:00:24.276Z,16.21
2017-10-13T12:01:24.301Z,16.21
2017-10-13T12:02:24.271Z,16.21
2017-10-13T12:03:23.921Z,16.17
2017-10-13T12:04:24.602Z,16.11
2017-10-13T12:05:23.913Z,16.06
2017-10-13T12:06:24.242Z,16.06
2017-10-13T12:07:24.258Z,16.06
2017-10-13T12:08:23.894Z,16.1
2017-10-13T12:09:24.563Z,16.06
2017-10-13T12:10:24.225Z,16.07
2017-10-13T12:11:24.217Z,16.13
2017-10-13T12:12:24.219Z,16.16
2017-10-13T12:13:23.892Z,16.17
2017-10-13T12:14:24.202Z,16.26
2017-10-13T12:15:24.565Z,16.4
2017-10-13T12:16:24.217Z,16.37
2017-10-13T12:17:24.533Z,16.36
2017-10-13T12:18:24.198Z,16.33
2017-10-13T12:19:23.850Z,16.29
2017-10-13T12:20:24.178Z,16.33
2017-10-13T12:21:23.844Z,16.3
2017-10-13T12:22:24.174Z,16.18
2017-10-13T12:23:23.829Z,16.18
2017-10-13T12:24:23.824Z,16.04
2017-10-13T12:25:24.156Z,16.04
2017-10-13T12:26:23.826Z,15.98
2017-10-13T12:27:24.148Z,15.91
2017-10-13T12:28:23.819Z,15.86
2017-10-13T12:29:24.151Z,15.93
2017-10-13T12:30:23.791Z,16
2017-10-13T12:31:24.123Z,16.02
2017-10-13T12:32:23.803Z,16.13
2017-10-13T12:33:24.115Z,16.17
2017-10-13T12:34:24.114Z,16.3
2017-10-13T12:35:23.766Z,16.25
2017-10-13T12:36:24.133Z,16.32
2017-10-13T12:37:23.757Z,16.27
2017-10-13T12:38:24.114Z,16.4
2017-10-13T12:39:23.748Z,16.45
2017-10-13T12:40:24.113Z,16.62
2017-10-13T12:41:23.742Z,16.69
2017-10-13T12:42:23.735Z,16.8
2017-10-13T12:43:23.730Z,17
2017-10-13T12:44:23.728Z,17.05
2017-10-13T12:45:23.727Z,17.03
2017-10-13T12:46:24.059Z,17.05
2017-10-13T12:47:24.060Z,16.94
2017-10-13T12:48:24.053Z,16.94
2017-10-13T12:49:23.707Z,16.91
2017-10-13T12:50:24.052Z,16.92
2017-10-13T12:51:24.035Z,16.97
2017-10-13T12:52:23.696Z,16.92
2017-10-13T12:53:24.031Z,16.92
2017-10-13T12:54:24.023Z,16.84
2017-10-13T12:55:23.700Z,16.8
2017-10-13T12:56:23.747Z,16.72
2017-10-13T12:57:24.070Z,16.76
2017-10-13T12:58:23.670Z,16.73
2017-10-13T12:59:24.372Z,16.63